Time;durP1;ratioP1;P1;durP2;ratioP2;P2;SDS_P1;SDS_P2;PMS_P1;PMS_P2;Temp;Humidity;BMP_temperature;BMP_pressure;BME280_temperature;BME280_humidity;BME280_pressure;Samples;Min_cycle;Max_cycle;Signal;HPM_P1;HPM_P2
2022/10/14 00:02:21;;;;;;;38.90;18.95;;;12.70;99.90;;;;;;4993709;28;20034;-73
2022/10/14 00:04:47;;;;;;;36.58;19.13;;;12.70;99.90;;;;;;4995826;28;20035;-72
2022/10/14 00:07:13;;;;;;;38.47;19.40;;;12.70;99.90;;;;;;4995029;28;20034;-73
2022/10/14 00:09:41;;;;;;;40.17;20.60;;;12.70;99.90;;;;;;4996523;28;20097;-72
2022/10/14 00:12:07;;;;;;;40.67;20.65;;;12.70;99.90;;;;;;4995992;28;20372;-73
2022/10/14 00:14:33;;;;;;;42.53;20.48;;;12.60;99.90;;;;;;4996536;28;20030;-74
2022/10/14 00:16:59;;;;;;;37.40;20.05;;;12.70;99.90;;;;;;4993966;28;20034;-74
2022/10/14 00:19:25;;;;;;;40.20;21.98;;;12.70;99.90;;;;;;4996445;28;20046;-72
2022/10/14 00:21:52;;;;;;;45.28;22.23;;;12.60;99.90;;;;;;4994918;28;20038;-72
2022/10/14 00:24:18;;;;;;;49.53;22.35;;;12.60;99.90;;;;;;4995153;28;20066;-73
2022/10/14 00:26:45;;;;;;;43.58;21.17;;;12.60;99.90;;;;;;4994776;28;20041;-74
2022/10/14 00:29:17;;;;;;;46.97;22.33;;;12.60;99.90;;;;;;4995958;28;20034;-73
2022/10/14 00:31:44;;;;;;;42.05;21.40;;;12.60;99.90;;;;;;4996678;28;20034;-73
2022/10/14 00:34:12;;;;;;;45.00;23.25;;;12.60;99.90;;;;;;4993774;28;20051;-72
2022/10/14 00:36:39;;;;;;;48.22;22.77;;;12.60;99.90;;;;;;4992913;28;20042;-73
2022/10/14 00:39:07;;;;;;;40.63;21.55;;;12.60;99.90;;;;;;4995152;28;20263;-72
2022/10/14 00:41:35;;;;;;;44.70;23.08;;;12.70;99.90;;;;;;4994269;28;20043;-72
2022/10/14 00:44:09;;;;;;;46.38;21.90;;;12.70;99.90;;;;;;4994982;28;20364;-72
2022/10/14 00:46:41;;;;;;;48.40;21.10;;;12.70;99.90;;;;;;4994372;28;20038;-74
2022/10/14 00:49:16;;;;;;;41.88;21.55;;;12.70;99.90;;;;;;4994951;28;20054;-73
2022/10/14 00:51:47;;;;;;;41.58;22.08;;;12.60;99.90;;;;;;4995877;28;20383;-72
2022/10/14 00:54:17;;;;;;;59.90;22.38;;;12.60;99.90;;;;;;4994593;28;20037;-74
2022/10/14 00:56:46;;;;;;;45.65;21.48;;;12.60;99.90;;;;;;4992376;28;20057;-72
2022/10/14 00:59:13;;;;;;;64.43;24.60;;;12.60;99.90;;;;;;4993763;28;20042;-73
2022/10/14 01:01:39;;;;;;;45.53;22.58;;;12.60;99.90;;;;;;4993807;28;20456;-73
2022/10/14 01:04:05;;;;;;;56.65;23.33;;;12.60;99.90;;;;;;4994705;28;20070;-73
2022/10/14 01:06:56;;;;;;;47.28;23.23;;;12.60;99.90;;;;;;4976566;28;20404;-72
2022/10/14 01:09:31;;;;;;;48.03;21.80;;;12.60;99.90;;;;;;4993799;28;20046;-73
2022/10/14 01:12:03;;;;;;;49.50;23.35;;;12.60;99.90;;;;;;4994811;28;20134;-73
2022/10/14 01:15:07;;;;;;;51.50;22.73;;;12.60;99.90;;;;;;4993964;28;20046;-73
2022/10/14 01:17:52;;;;;;;44.30;23.40;;;12.60;99.90;;;;;;4993570;28;20042;-72
2022/10/14 01:20:54;;;;;;;48.47;22.20;;;12.60;99.90;;;;;;4993853;28;20054;-73
2022/10/14 01:23:42;;;;;;;45.70;22.73;;;12.60;99.90;;;;;;4942242;28;20053;-73
2022/10/14 01:26:23;;;;;;;55.85;24.60;;;12.60;99.90;;;;;;4988004;28;20320;-73
2022/10/14 01:29:06;;;;;;;48.00;23.15;;;12.60;99.90;;;;;;4994716;28;20034;-78
2022/10/14 01:31:35;;;;;;;46.65;21.88;;;12.70;99.90;;;;;;4994966;28;20034;-73
2022/10/14 01:34:09;;;;;;;43.38;22.75;;;12.60;99.90;;;;;;4992731;28;20046;-72
2022/10/14 01:36:44;;;;;;;50.08;22.60;;;12.60;99.90;;;;;;4993405;28;20042;-73
2022/10/14 01:39:20;;;;;;;48.47;21.38;;;12.60;99.90;;;;;;4992781;28;20046;-72
2022/10/14 01:41:59;;;;;;;46.83;22.52;;;12.60;99.90;;;;;;4993321;28;20065;-73
2022/10/14 01:44:27;;;;;;;43.78;22.15;;;12.60;99.90;;;;;;4993257;28;20049;-73
2022/10/14 01:46:55;;;;;;;45.55;22.25;;;12.50;99.90;;;;;;4992558;28;20038;-73
2022/10/14 01:49:44;;;;;;;42.33;21.17;;;12.60;99.90;;;;;;4994576;28;20046;-72
2022/10/14 01:52:21;;;;;;;48.85;24.30;;;12.60;99.90;;;;;;4994084;28;20030;-73
2022/10/14 01:54:51;;;;;;;42.92;21.30;;;12.60;99.90;;;;;;4994647;28;20035;-72
2022/10/14 01:57:24;;;;;;;33.78;15.98;;;12.60;99.90;;;;;;4992916;28;20049;-73
2022/10/14 01:59:51;;;;;;;42.92;21.60;;;12.60;99.90;;;;;;4992263;28;20038;-75
2022/10/14 02:02:18;;;;;;;37.90;20.92;;;12.60;99.90;;;;;;4986339;28;20039;-73
2022/10/14 02:04:44;;;;;;;43.05;20.70;;;12.50;99.90;;;;;;4994286;28;20035;-72
2022/10/14 02:07:30;;;;;;;45.88;21.40;;;12.50;99.90;;;;;;4992151;28;20041;-73
2022/10/14 02:10:12;;;;;;;39.88;20.02;;;12.60;99.90;;;;;;4987854;28;20388;-73
2022/10/14 02:12:51;;;;;;;43.70;20.55;;;12.60;99.90;;;;;;4993805;28;20050;-73
2022/10/14 02:16:05;;;;;;;42.90;21.13;;;12.60;99.90;;;;;;4993018;28;20042;-74
2022/10/14 02:18:47;;;;;;;39.45;21.10;;;12.50;99.90;;;;;;4970289;28;20459;-73
2022/10/14 02:21:33;;;;;;;38.40;19.80;;;12.50;99.90;;;;;;4991318;28;20054;-73
2022/10/14 02:24:30;;;;;;;40.17;19.10;;;12.50;99.90;;;;;;4995224;28;20049;-73
2022/10/14 02:27:01;;;;;;;38.80;20.13;;;12.50;99.90;;;;;;5006556;28;20052;-74
2022/10/14 02:29:29;;;;;;;42.67;20.27;;;12.50;99.90;;;;;;5003841;28;20033;-73
2022/10/14 02:31:57;;;;;;;38.67;19.70;;;12.50;99.90;;;;;;4991339;28;20042;-72
2022/10/14 02:34:24;;;;;;;36.90;18.77;;;12.50;99.90;;;;;;4993868;28;20459;-73
2022/10/14 02:36:55;;;;;;;38.97;19.85;;;12.50;99.90;;;;;;4991786;28;20045;-77
2022/10/14 02:39:30;;;;;;;39.28;19.73;;;12.50;99.90;;;;;;4992314;28;20050;-72
2022/10/14 02:41:57;;;;;;;46.38;19.33;;;12.50;99.90;;;;;;4992543;28;20042;-72
2022/10/14 02:44:23;;;;;;;37.60;19.83;;;12.50;99.90;;;;;;4993731;28;20037;-74
2022/10/14 02:46:49;;;;;;;37.80;18.45;;;12.50;99.90;;;;;;4992041;28;20519;-73
2022/10/14 02:49:16;;;;;;;39.08;18.98;;;12.50;99.90;;;;;;4990943;28;20046;-72
2022/10/14 02:51:43;;;;;;;37.60;18.65;;;12.50;99.90;;;;;;4992152;28;20049;-72
2022/10/14 02:54:10;;;;;;;35.63;17.88;;;12.40;99.90;;;;;;4991323;28;20891;-73
2022/10/14 02:56:37;;;;;;;36.97;18.90;;;12.40;99.90;;;;;;4990218;28;20053;-72
2022/10/14 02:59:03;;;;;;;38.72;19.60;;;12.40;99.90;;;;;;4991121;28;20047;-72
2022/10/14 03:01:30;;;;;;;33.17;17.58;;;12.40;99.90;;;;;;4990968;28;20380;-72
2022/10/14 03:03:56;;;;;;;38.13;19.42;;;12.40;99.90;;;;;;4992580;28;20046;-72
2022/10/14 03:06:23;;;;;;;41.15;19.48;;;12.40;99.90;;;;;;4990699;28;20049;-72
2022/10/14 03:08:50;;;;;;;40.15;20.00;;;12.40;99.90;;;;;;4991685;28;20403;-72
2022/10/14 03:11:16;;;;;;;40.17;21.13;;;12.40;99.90;;;;;;4991072;28;20066;-73
2022/10/14 03:13:43;;;;;;;42.25;20.45;;;12.40;99.90;;;;;;4991872;28;20046;-72
2022/10/14 03:16:10;;;;;;;38.42;20.52;;;12.40;99.90;;;;;;4989232;28;20053;-73
2022/10/14 03:18:40;;;;;;;36.45;19.75;;;12.40;99.90;;;;;;4991477;28;20061;-72
2022/10/14 03:21:17;;;;;;;39.85;19.15;;;12.40;99.90;;;;;;4992933;28;20041;-73
2022/10/14 03:23:44;;;;;;;49.25;22.25;;;12.40;99.90;;;;;;4991471;28;20053;-72
2022/10/14 03:26:10;;;;;;;40.05;22.10;;;12.40;99.90;;;;;;4990992;28;20034;-73
2022/10/14 03:28:40;;;;;;;43.27;21.37;;;12.40;99.90;;;;;;4991447;28;20077;-73
2022/10/14 03:31:18;;;;;;;46.25;21.63;;;12.40;99.90;;;;;;4991373;28;20042;-72
2022/10/14 03:34:12;;;;;;;50.92;21.25;;;12.40;99.90;;;;;;4990472;28;20050;-74
2022/10/14 03:36:40;;;;;;;43.25;22.85;;;12.40;99.90;;;;;;4989791;28;20058;-72
2022/10/14 03:39:06;;;;;;;41.17;20.48;;;12.40;99.90;;;;;;4990647;28;20046;-72
2022/10/14 03:41:38;;;;;;;49.45;21.25;;;12.40;99.90;;;;;;4991014;28;20049;-73
2022/10/14 03:44:06;;;;;;;46.10;22.30;;;12.30;99.90;;;;;;4986971;28;20038;-73
2022/10/14 03:46:34;;;;;;;51.30;21.83;;;12.40;99.90;;;;;;4989852;28;20041;-73
2022/10/14 03:49:01;;;;;;;52.95;23.23;;;12.40;99.90;;;;;;4990334;28;20051;-73
2022/10/14 03:51:28;;;;;;;50.88;23.20;;;12.30;99.90;;;;;;4990813;28;20050;-73
2022/10/14 03:54:06;;;;;;;47.30;23.35;;;12.40;99.90;;;;;;4989520;28;20042;-73
2022/10/14 03:56:32;;;;;;;43.50;22.25;;;12.40;99.90;;;;;;4991610;28;20043;-74
2022/10/14 03:58:59;;;;;;;49.53;23.10;;;12.40;99.90;;;;;;4990882;28;20411;-73
2022/10/14 04:01:25;;;;;;;54.15;23.80;;;12.40;99.90;;;;;;4990688;28;20483;-74
2022/10/14 04:04:14;;;;;;;48.53;24.33;;;12.40;99.90;;;;;;4991616;28;20472;-73
2022/10/14 04:06:40;;;;;;;49.28;22.08;;;12.40;99.90;;;;;;4989516;28;20064;-71
2022/10/14 04:09:08;;;;;;;42.25;21.52;;;12.40;99.90;;;;;;4990743;28;20055;-72
2022/10/14 04:11:38;;;;;;;51.88;22.92;;;12.40;99.90;;;;;;4990734;28;20046;-72
2022/10/14 04:14:08;;;;;;;49.40;23.38;;;12.40;99.90;;;;;;4990497;28;20034;-72
2022/10/14 04:16:42;;;;;;;44.15;21.90;;;12.40;99.90;;;;;;4988987;28;20045;-72
2022/10/14 04:19:11;;;;;;;49.45;23.55;;;12.40;99.90;;;;;;4991875;28;20038;-73
2022/10/14 04:21:40;;;;;;;54.25;23.83;;;12.40;99.90;;;;;;4990624;28;20042;-73
2022/10/14 04:24:08;;;;;;;47.08;22.98;;;12.40;99.90;;;;;;4990432;28;20038;-73
2022/10/14 04:26:43;;;;;;;48.55;23.13;;;12.40;99.90;;;;;;4989525;28;20038;-73
2022/10/14 04:29:19;;;;;;;50.95;24.27;;;12.40;99.90;;;;;;4990518;28;20049;-72
2022/10/14 04:31:56;;;;;;;65.45;24.10;;;12.40;99.90;;;;;;4989991;28;20053;-73
2022/10/14 04:34:22;;;;;;;55.03;24.38;;;12.40;99.90;;;;;;4990600;28;20046;-73
2022/10/14 04:36:50;;;;;;;50.60;23.73;;;12.40;99.90;;;;;;4989490;28;20058;-73
2022/10/14 04:39:37;;;;;;;48.60;24.05;;;12.40;99.90;;;;;;4960280;28;20492;-72
2022/10/14 04:42:03;;;;;;;47.22;23.60;;;12.40;99.90;;;;;;4990993;28;20049;-72
2022/10/14 04:44:30;;;;;;;51.58;23.98;;;12.40;99.90;;;;;;4990651;28;20046;-73
2022/10/14 04:46:59;;;;;;;58.38;26.00;;;12.40;99.90;;;;;;4973331;28;20053;-73
2022/10/14 04:49:27;;;;;;;53.50;24.95;;;12.50;99.90;;;;;;4993317;28;20503;-73
2022/10/14 04:52:02;;;;;;;52.97;25.67;;;12.40;99.90;;;;;;4993503;28;20042;-73
2022/10/14 04:54:37;;;;;;;51.78;24.98;;;12.50;99.90;;;;;;4990426;28;20050;-72
2022/10/14 04:57:04;;;;;;;51.10;23.58;;;12.50;99.90;;;;;;4993513;28;20046;-72
2022/10/14 04:59:30;;;;;;;55.72;26.13;;;12.50;99.90;;;;;;4995536;28;20050;-72
2022/10/14 05:02:19;;;;;;;59.92;26.60;;;12.50;99.90;;;;;;4993544;28;20038;-72
2022/10/14 05:04:55;;;;;;;54.72;24.92;;;12.50;99.90;;;;;;4979745;28;20039;-72
2022/10/14 05:07:21;;;;;;;54.47;25.90;;;12.50;99.90;;;;;;4987060;28;20046;-72
2022/10/14 05:09:53;;;;;;;59.10;25.55;;;12.50;99.90;;;;;;4995475;28;20487;-75
2022/10/14 05:12:26;;;;;;;58.20;26.65;;;12.60;99.90;;;;;;4991273;28;20050;-73
2022/10/14 05:14:58;;;;;;;59.10;25.88;;;12.50;99.90;;;;;;4994581;28;20030;-75
2022/10/14 05:17:32;;;;;;;54.15;26.00;;;12.50;99.90;;;;;;4992220;28;20057;-74
2022/10/14 05:19:58;;;;;;;63.97;27.77;;;12.50;99.90;;;;;;4992820;28;20042;-74
2022/10/14 05:22:27;;;;;;;63.03;27.98;;;12.60;99.90;;;;;;4993720;28;20049;-74
2022/10/14 05:24:53;;;;;;;65.35;27.27;;;12.60;99.90;;;;;;4993483;28;20047;-73
2022/10/14 05:27:19;;;;;;;66.03;29.60;;;12.60;99.90;;;;;;4991098;28;20058;-74
2022/10/14 05:29:47;;;;;;;62.85;26.98;;;12.60;99.90;;;;;;4993554;28;20491;-73
2022/10/14 05:32:15;;;;;;;58.58;25.52;;;12.60;99.90;;;;;;4992597;28;20519;-74
2022/10/14 05:34:44;;;;;;;59.33;26.15;;;12.60;99.90;;;;;;4993675;28;20053;-73
2022/10/14 05:37:16;;;;;;;63.85;26.90;;;12.60;99.90;;;;;;4991194;28;20050;-74
2022/10/14 05:39:49;;;;;;;61.97;25.95;;;12.60;99.90;;;;;;4994063;28;20403;-73
2022/10/14 05:42:35;;;;;;;65.32;28.30;;;12.60;99.90;;;;;;4992303;28;20342;-76
2022/10/14 05:45:01;;;;;;;64.10;26.17;;;12.60;99.90;;;;;;4988512;28;20034;-72
2022/10/14 05:47:29;;;;;;;59.53;26.02;;;12.60;99.90;;;;;;4981465;28;20046;-73
2022/10/14 05:50:02;;;;;;;57.90;24.98;;;12.60;99.90;;;;;;4989402;28;20038;-73
2022/10/14 05:52:31;;;;;;;53.47;24.80;;;12.60;99.90;;;;;;4993268;28;20058;-72
2022/10/14 05:54:59;;;;;;;52.58;23.98;;;12.60;99.90;;;;;;4993220;28;20054;-79
2022/10/14 05:57:27;;;;;;;52.00;26.08;;;12.60;99.90;;;;;;4991304;28;20062;-73
2022/10/14 05:59:54;;;;;;;56.38;25.75;;;12.60;99.90;;;;;;4992209;28;20034;-73
2022/10/14 06:02:20;;;;;;;50.22;23.98;;;12.70;99.90;;;;;;4992176;28;20046;-72
2022/10/14 06:04:46;;;;;;;60.78;24.77;;;12.70;99.90;;;;;;4992980;28;20054;-72
2022/10/14 06:07:13;;;;;;;50.97;24.05;;;12.60;99.90;;;;;;4991834;28;20054;-73
2022/10/14 06:09:40;;;;;;;52.88;23.63;;;12.70;99.90;;;;;;4992705;28;20395;-72
2022/10/14 06:12:06;;;;;;;49.53;23.58;;;12.60;99.90;;;;;;4992351;28;20054;-74
2022/10/14 06:14:32;;;;;;;46.08;22.35;;;12.60;99.90;;;;;;4994323;28;20026;-73
2022/10/14 06:17:00;;;;;;;56.10;24.63;;;12.70;99.90;;;;;;4991319;28;20050;-73
2022/10/14 06:19:26;;;;;;;46.17;22.42;;;12.70;99.90;;;;;;4992915;28;20043;-73
2022/10/14 06:21:52;;;;;;;54.17;23.35;;;12.60;99.90;;;;;;4992875;28;20030;-73
2022/10/14 06:24:18;;;;;;;41.55;22.58;;;12.70;99.90;;;;;;4993500;28;20567;-73
2022/10/14 06:26:47;;;;;;;42.85;22.63;;;12.60;99.90;;;;;;4992475;28;20045;-73
2022/10/14 06:29:14;;;;;;;43.35;21.08;;;12.60;99.90;;;;;;4991857;28;20054;-73
2022/10/14 06:31:40;;;;;;;43.90;21.27;;;12.60;99.90;;;;;;4985974;28;20046;-72
2022/10/14 06:34:06;;;;;;;50.33;22.75;;;12.70;99.90;;;;;;4990564;28;20033;-73
2022/10/14 06:36:34;;;;;;;41.97;21.63;;;12.70;99.90;;;;;;4992240;28;20034;-72
2022/10/14 06:39:00;;;;;;;48.00;20.67;;;12.60;99.90;;;;;;4991495;28;20480;-75
2022/10/14 06:41:26;;;;;;;42.95;20.58;;;12.60;99.90;;;;;;5002701;28;20034;-72
2022/10/14 06:43:52;;;;;;;47.53;21.20;;;12.70;99.90;;;;;;5002882;28;20022;-71
2022/10/14 06:46:18;;;;;;;43.55;18.67;;;12.70;99.90;;;;;;4992265;28;20035;-73
2022/10/14 06:48:44;;;;;;;47.20;20.83;;;12.70;99.90;;;;;;4991928;28;20065;-73
2022/10/14 06:51:11;;;;;;;39.75;20.13;;;12.70;99.90;;;;;;4990536;28;20030;-73
2022/10/14 06:53:37;;;;;;;40.65;18.80;;;12.80;99.90;;;;;;4988012;28;20038;-73
2022/10/14 06:56:05;;;;;;;33.95;19.33;;;12.80;99.90;;;;;;4990415;28;20036;-74
2022/10/14 06:58:32;;;;;;;34.08;18.67;;;12.80;99.90;;;;;;4991051;28;20038;-73
2022/10/14 07:01:06;;;;;;;36.30;18.30;;;12.80;99.90;;;;;;4992896;28;20023;-72
2022/10/14 07:03:37;;;;;;;34.65;19.15;;;12.80;99.90;;;;;;4992543;28;20030;-73
2022/10/14 07:06:05;;;;;;;41.00;18.70;;;12.90;99.90;;;;;;4991140;28;20068;-76
2022/10/14 07:08:31;;;;;;;33.70;18.10;;;12.90;99.90;;;;;;4992496;28;20042;-72
2022/10/14 07:10:58;;;;;;;36.00;16.83;;;12.90;99.90;;;;;;4991912;28;20034;-73
2022/10/14 07:13:25;;;;;;;37.47;17.02;;;13.00;99.90;;;;;;4992378;28;20490;-74
2022/10/14 07:15:51;;;;;;;32.45;16.20;;;13.00;99.90;;;;;;4991478;28;20034;-74
2022/10/14 07:18:18;;;;;;;28.92;15.07;;;13.00;99.90;;;;;;4992682;28;20038;-72
2022/10/14 07:20:44;;;;;;;33.42;16.33;;;13.10;99.90;;;;;;4993332;28;20037;-72
2022/10/14 07:23:11;;;;;;;29.38;15.55;;;13.10;99.90;;;;;;4992022;28;20031;-74
2022/10/14 07:25:37;;;;;;;30.17;16.52;;;13.20;99.90;;;;;;4991002;28;20027;-73
2022/10/14 07:28:04;;;;;;;29.33;15.52;;;13.20;99.90;;;;;;4992783;28;20045;-72
2022/10/14 07:30:31;;;;;;;33.78;16.23;;;13.10;99.90;;;;;;4992572;28;20030;-73
2022/10/14 07:33:00;;;;;;;23.88;14.07;;;13.20;99.90;;;;;;4992721;28;20399;-72
2022/10/14 07:35:27;;;;;;;29.63;14.05;;;13.20;99.90;;;;;;4991019;28;20080;-74
2022/10/14 07:37:54;;;;;;;21.95;12.52;;;13.20;99.90;;;;;;4991040;28;20053;-74
2022/10/14 07:40:20;;;;;;;23.17;13.80;;;13.20;99.90;;;;;;4986269;28;20092;-71
2022/10/14 07:42:46;;;;;;;27.33;13.88;;;13.20;99.90;;;;;;4992773;28;20030;-72
2022/10/14 07:45:17;;;;;;;22.52;12.27;;;13.20;99.90;;;;;;4991487;28;20034;-73
2022/10/14 07:47:45;;;;;;;;;;;13.20;99.90;;;;;;4991922;28;20065;-73
2022/10/14 07:50:12;;;;;;;24.63;14.90;;;13.30;99.90;;;;;;5000290;28;19918;-72
2022/10/14 07:52:38;;;;;;;24.42;14.80;;;13.30;99.90;;;;;;4985845;28;20035;-72
2022/10/14 07:55:06;;;;;;;28.05;15.35;;;13.30;99.90;;;;;;4991131;28;20468;-73
2022/10/14 07:57:32;;;;;;;20.50;12.90;;;13.30;99.90;;;;;;4991197;28;20046;-72
2022/10/14 07:59:58;;;;;;;23.27;13.13;;;13.30;99.90;;;;;;4992605;28;20038;-72
2022/10/14 08:02:25;;;;;;;23.15;12.82;;;13.40;99.90;;;;;;4991925;28;20038;-75
2022/10/14 08:04:54;;;;;;;25.42;12.57;;;13.40;99.90;;;;;;4990702;28;20050;-73
2022/10/14 08:07:21;;;;;;;20.60;12.93;;;13.40;99.90;;;;;;4989827;28;20061;-71
2022/10/14 08:09:47;;;;;;;27.40;12.35;;;13.40;99.90;;;;;;4991852;28;20037;-72
2022/10/14 08:12:13;;;;;;;19.98;12.63;;;13.50;99.90;;;;;;4991870;28;20141;-73
2022/10/14 08:14:40;;;;;;;21.20;12.65;;;13.50;99.90;;;;;;4992119;28;20035;-72
2022/10/14 08:17:06;;;;;;;21.48;12.52;;;13.50;99.90;;;;;;4988917;28;20042;-75
2022/10/14 08:19:32;;;;;;;22.90;13.50;;;13.50;99.90;;;;;;4988018;28;20037;-75
2022/10/14 08:21:58;;;;;;;19.83;12.02;;;13.60;99.90;;;;;;4991907;28;20468;-75
2022/10/14 08:24:25;;;;;;;21.15;12.75;;;13.70;99.90;;;;;;4994387;28;20455;-72
2022/10/14 08:26:56;;;;;;;23.15;13.52;;;13.70;99.90;;;;;;4994805;28;20031;-78
2022/10/14 08:29:23;;;;;;;21.95;12.00;;;13.70;99.90;;;;;;4995506;28;20046;-72
2022/10/14 08:31:51;;;;;;;19.08;12.68;;;13.80;99.90;;;;;;4995899;28;20030;-71
2022/10/14 08:34:20;;;;;;;22.40;13.30;;;13.90;99.90;;;;;;4995252;28;20369;-71
2022/10/14 08:36:50;;;;;;;19.05;11.88;;;14.00;99.90;;;;;;4994275;28;20385;-71
2022/10/14 08:39:18;;;;;;;20.08;11.43;;;14.10;99.90;;;;;;4995224;28;20114;-72
2022/10/14 08:41:57;;;;;;;20.02;12.02;;;14.20;99.90;;;;;;4995739;28;20041;-70
2022/10/14 08:44:34;;;;;;;19.00;12.95;;;14.30;99.90;;;;;;4995186;28;20373;-72
2022/10/14 08:47:03;;;;;;;19.55;11.50;;;14.50;99.90;;;;;;4992820;28;20042;-71
2022/10/14 08:49:35;;;;;;;16.83;10.68;;;14.50;99.90;;;;;;4994877;28;20046;-71
2022/10/14 08:52:16;;;;;;;20.92;10.40;;;14.50;99.90;;;;;;4994184;28;20054;-71
2022/10/14 08:54:45;;;;;;;19.30;11.52;;;14.50;99.90;;;;;;4995512;28;20487;-71
2022/10/14 08:57:18;;;;;;;17.02;11.40;;;14.60;99.90;;;;;;4993501;28;20460;-72
2022/10/14 08:59:44;;;;;;;15.55;10.05;;;14.60;99.90;;;;;;4995902;28;20045;-71
2022/10/14 09:02:47;;;;;;;14.25;9.82;;;14.70;99.90;;;;;;4993605;28;20148;-72
2022/10/14 09:05:20;;;;;;;15.85;10.25;;;14.70;99.90;;;;;;4994866;28;20051;-72
2022/10/14 09:07:49;;;;;;;12.30;10.27;;;14.70;99.90;;;;;;4995176;28;20042;-70
2022/10/14 09:10:32;;;;;;;19.02;10.07;;;14.80;99.90;;;;;;4994085;28;20047;-70
2022/10/14 09:13:12;;;;;;;12.48;8.60;;;14.70;99.90;;;;;;4995056;28;20042;-75
2022/10/14 09:15:42;;;;;;;13.45;8.85;;;14.80;99.90;;;;;;4993559;28;20046;-75
2022/10/14 09:18:21;;;;;;;14.10;8.93;;;14.90;99.90;;;;;;4993724;28;20045;-74
2022/10/14 09:20:48;;;;;;;13.75;9.13;;;15.00;99.90;;;;;;4993331;28;20357;-75
2022/10/14 09:23:19;;;;;;;10.75;7.45;;;15.10;99.90;;;;;;4993337;28;20376;-75
2022/10/14 09:25:57;;;;;;;11.82;7.55;;;15.20;99.90;;;;;;4993786;28;20464;-74
2022/10/14 09:28:35;;;;;;;12.65;7.20;;;15.20;99.90;;;;;;4994369;28;20356;-73
2022/10/14 09:31:02;;;;;;;10.32;6.80;;;15.30;99.90;;;;;;4982258;28;20038;-74
2022/10/14 09:33:29;;;;;;;10.32;6.35;;;15.40;99.90;;;;;;4992670;28;20038;-73
2022/10/14 09:35:56;;;;;;;7.90;5.43;;;15.40;99.90;;;;;;4987265;28;20058;-73
2022/10/14 09:38:24;;;;;;;9.07;5.60;;;15.40;99.90;;;;;;4989232;28;20038;-75
2022/10/14 09:40:55;;;;;;;9.93;5.75;;;15.50;99.90;;;;;;4986595;28;20034;-72
2022/10/14 09:43:23;;;;;;;10.65;5.25;;;15.70;99.90;;;;;;4992851;28;20594;-70
2022/10/14 09:45:57;;;;;;;7.10;4.72;;;15.80;99.90;;;;;;4994582;28;20050;-71
2022/10/14 09:48:23;;;;;;;9.27;5.10;;;15.90;99.90;;;;;;4992921;28;20053;-72
2022/10/14 09:50:52;;;;;;;9.27;4.80;;;16.00;99.90;;;;;;4993332;28;20046;-73
2022/10/14 09:53:31;;;;;;;9.75;5.05;;;15.90;99.90;;;;;;4993547;28;20038;-72
2022/10/14 09:56:01;;;;;;;6.45;4.07;;;15.90;99.90;;;;;;4994278;28;20038;-73
2022/10/14 09:58:49;;;;;;;8.10;4.60;;;15.70;99.90;;;;;;4993696;28;20054;-73
2022/10/14 10:01:21;;;;;;;6.90;4.25;;;15.70;99.90;;;;;;4985278;28;20413;-73
2022/10/14 10:03:48;;;;;;;6.60;3.95;;;15.60;99.90;;;;;;4994487;28;20037;-72
2022/10/14 10:06:22;;;;;;;5.97;4.40;;;15.70;99.90;;;;;;4993240;28;20038;-73
2022/10/14 10:08:54;;;;;;;7.65;4.20;;;15.60;99.90;;;;;;4993888;28;20472;-73
2022/10/14 10:11:32;;;;;;;8.57;4.20;;;15.70;99.90;;;;;;4991031;28;20042;-73
2022/10/14 10:14:13;;;;;;;8.13;4.80;;;15.70;99.90;;;;;;4994003;28;20026;-73
2022/10/14 10:16:39;;;;;;;5.63;4.05;;;15.80;99.90;;;;;;4994020;28;20026;-73
2022/10/14 10:19:27;;;;;;;9.90;4.40;;;15.90;99.90;;;;;;4993852;28;20039;-72
2022/10/14 10:21:54;;;;;;;10.85;5.18;;;16.00;99.90;;;;;;4992443;28;20464;-73
2022/10/14 10:24:22;;;;;;;8.07;4.32;;;16.10;99.90;;;;;;4993509;28;20030;-73
2022/10/14 10:26:49;;;;;;;7.35;4.50;;;16.10;99.90;;;;;;4993581;28;20034;-73
2022/10/14 10:29:27;;;;;;;5.75;3.78;;;16.10;99.90;;;;;;4987011;28;20054;-73
2022/10/14 10:32:00;;;;;;;10.45;4.60;;;16.10;99.90;;;;;;4992586;28;20026;-74
2022/10/14 10:34:45;;;;;;;5.57;3.75;;;16.10;99.90;;;;;;4991804;28;20050;-73
2022/10/14 10:37:16;;;;;;;5.70;4.45;;;16.10;99.90;;;;;;4993556;28;20376;-77
2022/10/14 10:40:15;;;;;;;7.75;4.03;;;16.00;99.90;;;;;;4991332;28;20050;-73
2022/10/14 10:42:58;;;;;;;6.90;3.83;;;15.90;99.90;;;;;;4993866;28;20043;-73
2022/10/14 10:45:42;;;;;;;5.85;3.80;;;16.00;99.90;;;;;;4992692;28;20041;-72
2022/10/14 10:48:23;;;;;;;6.03;3.58;;;15.90;99.90;;;;;;4993672;28;20053;-72
2022/10/14 10:50:54;;;;;;;;;;;15.90;99.90;;;;;;4992757;28;20042;-73
2022/10/14 10:53:35;;;;;;;7.63;4.18;;;15.90;99.90;;;;;;4993166;28;20278;-73
2022/10/14 10:56:08;;;;;;;8.35;4.68;;;15.80;99.90;;;;;;5006018;28;20030;-72
2022/10/14 10:59:05;;;;;;;8.00;4.53;;;15.80;99.90;;;;;;5008084;28;20046;-73
2022/10/14 11:01:49;;;;;;;11.32;5.13;;;15.90;99.90;;;;;;4992202;28;20038;-72
2022/10/14 11:04:41;;;;;;;7.05;4.00;;;15.80;99.90;;;;;;4992564;28;20134;-73
2022/10/14 11:13:21;;;;;;;7.40;4.25;;;15.50;99.90;;;;;;4992268;28;20039;-73
2022/10/14 11:15:48;;;;;;;;;;;15.40;99.90;;;;;;4993372;28;20037;-72
2022/10/14 11:18:46;;;;;;;9.90;4.25;;;15.40;99.90;;;;;;4992069;28;19925;-79
2022/10/14 11:21:38;;;;;;;7.43;4.57;;;15.50;99.90;;;;;;4991399;28;20034;-72
2022/10/14 11:24:26;;;;;;;10.45;5.72;;;15.40;99.90;;;;;;4992789;28;20049;-72
2022/10/14 11:27:11;;;;;;;7.47;5.22;;;15.40;99.90;;;;;;4992624;28;20472;-72
2022/10/14 11:29:56;;;;;;;9.15;5.30;;;15.40;99.90;;;;;;4991307;28;20479;-73
2022/10/14 11:32:37;;;;;;;10.43;4.78;;;15.40;99.90;;;;;;4988146;28;20034;-72
2022/10/14 11:35:33;;;;;;;10.27;5.60;;;15.40;99.90;;;;;;4993548;28;20365;-72
2022/10/14 11:38:11;;;;;;;9.13;4.78;;;15.30;99.90;;;;;;4992733;28;20392;-73
2022/10/14 11:41:00;;;;;;;12.48;5.47;;;15.30;99.90;;;;;;4990897;28;20035;-72
2022/10/14 11:43:31;;;;;;;7.95;5.15;;;15.30;99.90;;;;;;4991509;28;20047;-72
2022/10/14 11:45:59;;;;;;;6.45;4.65;;;15.20;99.90;;;;;;4992832;28;20049;-72
2022/10/14 11:48:27;;;;;;;8.23;4.25;;;15.30;99.90;;;;;;4991906;28;20061;-72
2022/10/14 11:51:01;;;;;;;7.75;5.00;;;15.30;99.90;;;;;;4991289;28;20407;-72
2022/10/14 11:53:41;;;;;;;7.55;5.07;;;15.20;99.90;;;;;;4991861;28;20042;-72
2022/10/14 11:56:23;;;;;;;9.50;4.82;;;15.20;99.90;;;;;;4992746;28;20045;-72
2022/10/14 11:58:52;;;;;;;6.85;4.60;;;15.20;99.90;;;;;;4994212;28;20507;-73
2022/10/14 12:01:23;;;;;;;8.30;4.40;;;15.20;99.90;;;;;;4994284;28;20041;-74
2022/10/14 12:04:12;;;;;;;;;;;15.30;99.90;;;;;;4996798;28;20281;-73
2022/10/14 12:06:45;;;;;;;9.05;4.55;;;15.30;99.90;;;;;;4995737;28;19921;-74
2022/10/14 12:09:42;;;;;;;13.18;4.57;;;15.30;99.90;;;;;;4996247;28;20395;-72
2022/10/14 12:12:12;;;;;;;11.45;4.53;;;15.40;99.90;;;;;;4988123;28;20057;-72
2022/10/14 12:14:43;;;;;;;7.95;4.72;;;15.40;99.90;;;;;;4995786;28;20038;-71
2022/10/14 12:17:21;;;;;;;10.98;5.38;;;15.40;99.90;;;;;;4996554;28;20038;-72
2022/10/14 12:19:50;;;;;;;10.13;4.53;;;15.50;99.90;;;;;;4993741;28;20514;-73
2022/10/14 12:22:24;;;;;;;11.63;5.32;;;15.60;99.90;;;;;;4996022;28;20510;-72
2022/10/14 12:24:57;;;;;;;6.65;4.40;;;15.60;99.90;;;;;;4996224;28;20034;-72
2022/10/14 12:27:25;;;;;;;8.50;3.92;;;15.60;99.90;;;;;;4994969;28;20037;-73
2022/10/14 12:29:56;;;;;;;9.98;5.38;;;15.60;99.90;;;;;;4994311;28;20042;-73
2022/10/14 12:32:23;;;;;;;;;;;15.60;99.90;;;;;;4996030;28;20057;-73
2022/10/14 12:34:53;;;;;;;9.65;4.38;;;15.80;99.90;;;;;;4996098;28;19921;-73
2022/10/14 12:37:36;;;;;;;5.47;3.20;;;15.80;99.90;;;;;;4995209;28;20471;-73
2022/10/14 12:40:04;;;;;;;7.38;3.47;;;15.90;99.90;;;;;;4994410;28;20042;-73
2022/10/14 12:42:34;;;;;;;6.20;3.78;;;15.90;99.90;;;;;;5009517;28;20038;-73
2022/10/14 12:45:17;;;;;;;6.97;3.85;;;16.00;99.90;;;;;;4995540;28;20045;-73
2022/10/14 12:47:43;;;;;;;9.15;4.00;;;16.10;99.90;;;;;;4995192;28;20034;-72
2022/10/14 12:50:16;;;;;;;5.35;3.67;;;16.10;99.90;;;;;;4994310;28;20564;-73
2022/10/14 12:52:55;;;;;;;5.85;3.72;;;16.10;99.90;;;;;;4994512;28;20050;-73
2022/10/14 12:55:24;;;;;;;5.45;3.58;;;16.20;99.90;;;;;;4995133;28;20035;-73
2022/10/14 12:57:55;;;;;;;5.68;3.28;;;16.20;99.90;;;;;;4995620;28;20034;-72
2022/10/14 13:00:21;;;;;;;7.75;3.72;;;16.10;99.90;;;;;;4988944;28;20054;-76
2022/10/14 13:02:49;;;;;;;7.30;3.97;;;16.00;99.90;;;;;;4991721;28;20468;-73
2022/10/14 13:05:29;;;;;;;7.50;3.50;;;15.90;99.90;;;;;;4995109;28;20034;-73